createdAt,value
2022-11-30T00:00:21.636Z,8.90
2022-11-30T00:02:49.886Z,8.90
2022-11-30T00:05:16.777Z,8.90
2022-11-30T00:07:43.752Z,8.90
2022-11-30T00:10:10.926Z,8.90
2022-11-30T00:12:37.770Z,8.90
2022-11-30T00:15:04.736Z,8.90
2022-11-30T00:17:31.571Z,8.90
2022-11-30T00:19:58.339Z,8.90
2022-11-30T00:22:25.152Z,8.90
2022-11-30T00:24:51.995Z,8.90
2022-11-30T00:27:19.036Z,8.90
2022-11-30T00:29:45.854Z,8.90
2022-11-30T00:32:12.921Z,8.90
2022-11-30T00:34:39.707Z,8.90
2022-11-30T00:37:09.574Z,8.90
2022-11-30T00:39:36.425Z,8.80
2022-11-30T00:42:03.293Z,8.90
2022-11-30T00:44:30.130Z,8.80
2022-11-30T00:46:56.978Z,8.70
2022-11-30T00:49:23.827Z,8.70
2022-11-30T00:51:50.729Z,8.70
2022-11-30T00:54:17.604Z,8.70
2022-11-30T00:56:44.621Z,8.80
2022-11-30T00:59:11.446Z,8.80
2022-11-30T01:01:38.274Z,8.70
2022-11-30T01:04:06.126Z,8.70
2022-11-30T01:06:33.052Z,8.70
2022-11-30T01:09:00.200Z,8.60
2022-11-30T01:11:29.095Z,8.60
2022-11-30T01:13:56.763Z,8.50
2022-11-30T01:16:27.880Z,8.60
2022-11-30T01:18:54.815Z,8.50
2022-11-30T01:21:23.957Z,8.60
2022-11-30T01:23:51.181Z,8.60
2022-11-30T01:26:18.501Z,8.60
2022-11-30T01:28:49.498Z,8.60
2022-11-30T01:31:17.012Z,8.60
2022-11-30T01:33:43.852Z,8.60
2022-11-30T01:36:12.210Z,8.60
2022-11-30T01:38:40.293Z,8.50
2022-11-30T01:41:08.332Z,8.50
2022-11-30T01:43:44.106Z,8.50
2022-11-30T01:46:29.533Z,8.50
2022-11-30T01:49:10.277Z,8.50
2022-11-30T01:51:43.045Z,8.50
2022-11-30T01:54:11.110Z,8.50
2022-11-30T01:56:40.621Z,8.50
2022-11-30T01:59:07.530Z,8.50
2022-11-30T02:01:34.432Z,8.50
2022-11-30T02:04:19.814Z,8.50
2022-11-30T02:06:47.493Z,8.50
2022-11-30T02:09:19.429Z,8.50
2022-11-30T02:11:46.397Z,8.50
2022-11-30T02:14:31.722Z,8.50
2022-11-30T02:17:17.101Z,8.50
2022-11-30T02:19:59.201Z,8.50
2022-11-30T02:22:26.100Z,8.50
2022-11-30T02:25:10.491Z,8.50
2022-11-30T02:27:37.339Z,8.50
2022-11-30T02:30:04.310Z,8.50
2022-11-30T02:32:36.652Z,8.50
2022-11-30T02:35:04.837Z,8.50
2022-11-30T02:37:32.187Z,8.50
2022-11-30T02:39:59.366Z,8.50
2022-11-30T02:42:26.170Z,8.50
2022-11-30T02:44:53.656Z,8.50
2022-11-30T02:47:23.442Z,8.50
2022-11-30T02:49:54.894Z,8.50
2022-11-30T02:52:24.079Z,8.50
2022-11-30T02:54:51.127Z,8.50
2022-11-30T02:57:17.938Z,8.50
2022-11-30T02:59:44.813Z,8.50
2022-11-30T03:02:11.969Z,8.50
2022-11-30T03:04:38.803Z,8.50
2022-11-30T03:07:05.716Z,8.50
2022-11-30T03:09:32.588Z,8.40
2022-11-30T03:11:59.466Z,8.40
2022-11-30T03:14:26.270Z,8.40
2022-11-30T03:16:53.075Z,8.40
2022-11-30T03:19:19.855Z,8.40
2022-11-30T03:21:47.290Z,8.40
2022-11-30T03:24:14.184Z,8.40
2022-11-30T03:26:41.159Z,8.50
2022-11-30T03:29:07.980Z,8.40
2022-11-30T03:31:35.151Z,8.40
2022-11-30T03:34:02.071Z,8.40
2022-11-30T03:36:28.898Z,8.40
2022-11-30T03:38:55.916Z,8.40
2022-11-30T03:41:22.693Z,8.40
2022-11-30T03:43:49.539Z,8.50
2022-11-30T03:46:16.669Z,8.40
2022-11-30T03:48:43.591Z,8.40
2022-11-30T03:51:11.312Z,8.40
2022-11-30T03:53:38.337Z,8.40
2022-11-30T03:56:06.302Z,8.40
2022-11-30T03:58:33.282Z,8.40
2022-11-30T04:01:00.049Z,8.40
2022-11-30T04:03:26.895Z,8.40
2022-11-30T04:05:53.698Z,8.40
2022-11-30T04:08:20.476Z,8.40
2022-11-30T04:10:48.134Z,8.40
2022-11-30T04:13:14.920Z,8.40
2022-11-30T04:15:42.003Z,8.40
2022-11-30T04:18:08.867Z,8.40
2022-11-30T04:20:40.198Z,8.40
2022-11-30T04:23:07.572Z,8.40
2022-11-30T04:25:34.408Z,8.40
2022-11-30T04:28:01.238Z,8.40
2022-11-30T04:30:28.019Z,8.40
2022-11-30T04:32:54.908Z,8.50
2022-11-30T04:35:21.777Z,8.40
2022-11-30T04:37:48.573Z,8.40
2022-11-30T04:40:15.396Z,8.40
2022-11-30T04:42:42.238Z,8.40
2022-11-30T04:45:09.243Z,8.40
2022-11-30T04:47:36.117Z,8.40
2022-11-30T04:50:03.356Z,8.40
2022-11-30T04:52:30.490Z,8.50
2022-11-30T04:54:57.434Z,8.40
2022-11-30T04:57:24.304Z,8.40
2022-11-30T04:59:51.257Z,8.50
2022-11-30T05:02:18.088Z,8.50
2022-11-30T05:04:45.250Z,8.50
2022-11-30T05:07:12.373Z,8.50
2022-11-30T05:09:39.204Z,8.40
2022-11-30T05:12:06.248Z,8.50
2022-11-30T05:14:33.100Z,8.50
2022-11-30T05:16:59.891Z,8.40
2022-11-30T05:19:26.872Z,8.50
2022-11-30T05:21:53.658Z,8.50
2022-11-30T05:24:20.506Z,8.40
2022-11-30T05:26:47.337Z,8.50
2022-11-30T05:29:14.287Z,8.40
2022-11-30T05:31:41.261Z,8.50
2022-11-30T05:34:08.234Z,8.40
2022-11-30T05:36:35.137Z,8.50
2022-11-30T05:39:01.973Z,8.50
2022-11-30T05:41:28.912Z,8.50
2022-11-30T05:43:56.242Z,8.40
2022-11-30T05:46:23.327Z,8.40
2022-11-30T05:48:50.227Z,8.40
2022-11-30T05:51:18.286Z,8.50
2022-11-30T05:53:45.643Z,8.40
2022-11-30T05:56:16.565Z,8.40
2022-11-30T05:58:43.556Z,8.40
2022-11-30T06:01:21.196Z,8.40
2022-11-30T06:03:48.083Z,8.40
2022-11-30T06:06:15.001Z,8.40
2022-11-30T06:08:42.505Z,8.40
2022-11-30T06:11:09.400Z,8.50
2022-11-30T06:13:36.493Z,8.50
2022-11-30T06:16:03.888Z,8.50
2022-11-30T06:18:31.000Z,8.40
2022-11-30T06:21:01.852Z,8.50
2022-11-30T06:23:29.247Z,8.50
2022-11-30T06:25:56.290Z,8.50
2022-11-30T06:28:23.478Z,8.50
2022-11-30T06:30:50.469Z,8.50
2022-11-30T06:33:17.331Z,8.50
2022-11-30T06:35:47.072Z,8.50
2022-11-30T06:38:13.922Z,8.50
2022-11-30T06:40:40.761Z,8.50
2022-11-30T06:43:07.597Z,8.50
2022-11-30T06:45:34.607Z,8.50
2022-11-30T06:48:01.558Z,8.50
2022-11-30T06:50:28.496Z,8.40
2022-11-30T06:52:56.477Z,8.40
2022-11-30T06:55:23.696Z,8.50
2022-11-30T06:57:50.706Z,8.40
2022-11-30T07:00:17.932Z,8.40
2022-11-30T07:02:45.080Z,8.40
2022-11-30T07:05:11.933Z,8.40
2022-11-30T07:07:39.191Z,8.40
2022-11-30T07:10:06.358Z,8.40
2022-11-30T07:12:35.552Z,8.40
2022-11-30T07:15:02.451Z,8.40
2022-11-30T07:17:29.292Z,8.40
2022-11-30T07:19:56.081Z,8.40
2022-11-30T07:22:22.876Z,8.40
2022-11-30T07:25:08.654Z,8.40
2022-11-30T07:27:35.468Z,8.40
2022-11-30T07:30:02.339Z,8.40
2022-11-30T07:32:29.181Z,8.40
2022-11-30T07:34:56.006Z,8.40
2022-11-30T07:37:23.089Z,8.40
2022-11-30T07:39:49.916Z,8.40
2022-11-30T07:42:17.790Z,8.40
2022-11-30T07:44:45.029Z,8.40
2022-11-30T07:47:12.047Z,8.40
2022-11-30T07:49:39.941Z,8.40
2022-11-30T07:52:06.856Z,8.40
2022-11-30T07:54:33.697Z,8.40
2022-11-30T07:57:00.671Z,8.40
2022-11-30T07:59:27.513Z,8.40
2022-11-30T08:01:54.486Z,8.40
2022-11-30T08:04:21.549Z,8.40
2022-11-30T08:06:48.463Z,8.40
2022-11-30T08:09:20.368Z,8.40
2022-11-30T08:11:48.775Z,8.40
2022-11-30T08:14:15.645Z,8.40
2022-11-30T08:16:44.309Z,8.40
2022-11-30T08:19:11.177Z,8.40
2022-11-30T08:21:38.320Z,8.40
2022-11-30T08:24:05.703Z,8.40
2022-11-30T08:26:33.690Z,8.40
2022-11-30T08:29:01.392Z,8.50
2022-11-30T08:31:29.628Z,8.40
2022-11-30T08:33:58.485Z,8.50
2022-11-30T08:36:25.987Z,8.50
2022-11-30T08:38:52.922Z,8.50
2022-11-30T08:41:21.407Z,8.50
2022-11-30T08:43:48.753Z,8.50
2022-11-30T08:46:49.089Z,8.50
2022-11-30T08:54:39.765Z,8.60
2022-11-30T08:57:06.727Z,8.60
2022-11-30T08:59:33.666Z,8.70
2022-11-30T09:02:00.542Z,8.70
2022-11-30T09:04:27.437Z,8.70
2022-11-30T09:06:59.259Z,8.70
2022-11-30T09:09:26.895Z,8.70
2022-11-30T09:11:53.775Z,8.70
2022-11-30T09:14:20.654Z,8.70
2022-11-30T09:16:47.634Z,8.80
2022-11-30T09:19:14.440Z,8.80
2022-11-30T09:21:45.367Z,8.80
2022-11-30T09:24:16.654Z,8.80
2022-11-30T09:26:43.526Z,8.90
2022-11-30T09:29:10.455Z,8.90
2022-11-30T09:31:37.292Z,8.90
2022-11-30T09:34:04.125Z,9.00
2022-11-30T09:36:31.172Z,9.00
2022-11-30T09:38:58.236Z,9.10
2022-11-30T09:41:30.944Z,9.10
2022-11-30T09:43:57.790Z,9.10
2022-11-30T09:46:28.392Z,9.20
2022-11-30T09:49:02.177Z,9.20
2022-11-30T09:51:47.871Z,9.10
2022-11-30T09:54:35.706Z,9.10
2022-11-30T09:57:21.215Z,9.00
2022-11-30T09:59:52.108Z,9.10
2022-11-30T10:02:19.480Z,9.10
2022-11-30T10:04:46.912Z,9.20
2022-11-30T10:07:13.879Z,9.20
2022-11-30T10:09:40.784Z,9.20
2022-11-30T10:12:07.609Z,9.30
2022-11-30T10:14:55.962Z,9.30
2022-11-30T10:17:42.914Z,9.40
2022-11-30T10:20:28.589Z,9.30
2022-11-30T10:23:02.601Z,9.30
2022-11-30T10:25:36.154Z,9.30
2022-11-30T10:28:24.391Z,9.30
2022-11-30T10:30:52.727Z,9.20
2022-11-30T10:33:20.817Z,9.20
2022-11-30T10:35:49.820Z,9.20
2022-11-30T10:38:28.433Z,9.20
2022-11-30T10:41:12.319Z,9.30
2022-11-30T10:43:43.797Z,9.30
2022-11-30T10:46:26.362Z,9.40
2022-11-30T10:49:13.187Z,9.40
2022-11-30T10:51:42.452Z,9.40
2022-11-30T10:54:14.813Z,9.40
2022-11-30T10:56:41.720Z,9.40
2022-11-30T10:59:19.120Z,9.40
2022-11-30T11:01:46.247Z,9.40
2022-11-30T11:04:13.208Z,9.40
2022-11-30T11:06:43.473Z,9.40
2022-11-30T11:09:23.452Z,9.40
2022-11-30T11:11:55.486Z,9.40
2022-11-30T11:14:26.522Z,9.50
2022-11-30T11:16:53.324Z,9.50
2022-11-30T11:19:39.249Z,9.60
2022-11-30T11:22:18.405Z,9.60
2022-11-30T11:24:49.526Z,9.60
2022-11-30T11:27:24.581Z,9.70
2022-11-30T11:30:00.080Z,9.70
2022-11-30T11:32:27.051Z,9.80
2022-11-30T11:34:54.197Z,9.80
2022-11-30T11:37:22.681Z,9.90
2022-11-30T11:39:55.248Z,9.90
2022-11-30T11:42:22.685Z,10.00
2022-11-30T11:44:53.570Z,10.00
2022-11-30T11:47:25.517Z,10.00
2022-11-30T11:49:53.000Z,10.00
2022-11-30T11:52:19.885Z,10.10
2022-11-30T11:55:05.521Z,10.10
2022-11-30T11:57:41.956Z,10.20
2022-11-30T12:00:19.513Z,10.30
2022-11-30T12:02:52.378Z,10.40
2022-11-30T12:05:30.563Z,10.30
2022-11-30T12:08:06.837Z,10.30
2022-11-30T12:10:51.868Z,10.20
2022-11-30T12:13:23.206Z,10.30
2022-11-30T12:15:57.446Z,10.40
2022-11-30T12:18:27.070Z,10.50
2022-11-30T12:21:00.755Z,10.60
2022-11-30T12:23:33.601Z,10.60
2022-11-30T12:26:09.835Z,10.50
2022-11-30T12:28:55.501Z,10.50
2022-11-30T12:31:24.196Z,10.50
2022-11-30T12:34:04.493Z,10.60
2022-11-30T12:36:31.422Z,10.60
2022-11-30T12:39:02.360Z,10.70
2022-11-30T12:41:29.160Z,10.70
2022-11-30T12:44:14.591Z,10.80
2022-11-30T12:47:02.305Z,10.90
2022-11-30T12:49:36.197Z,11.10
2022-11-30T12:52:18.957Z,11.20
2022-11-30T12:55:03.819Z,11.30
2022-11-30T12:57:35.275Z,11.30
2022-11-30T13:00:18.942Z,11.30
2022-11-30T13:02:58.020Z,11.30
2022-11-30T13:05:30.694Z,11.40
2022-11-30T13:07:57.645Z,11.50
2022-11-30T13:10:36.547Z,11.50
2022-11-30T13:13:04.669Z,11.50
2022-11-30T13:15:34.056Z,11.50
2022-11-30T13:18:02.689Z,11.50
2022-11-30T13:20:36.294Z,11.40
2022-11-30T13:23:28.867Z,11.40
2022-11-30T13:26:10.302Z,11.40
2022-11-30T13:28:43.406Z,11.30
2022-11-30T13:31:16.199Z,11.30
2022-11-30T13:33:50.193Z,11.30
2022-11-30T13:36:25.896Z,11.30
2022-11-30T13:39:28.729Z,11.20
2022-11-30T13:42:01.206Z,11.20
2022-11-30T13:44:32.701Z,11.20
2022-11-30T13:47:00.451Z,11.20
2022-11-30T13:49:35.852Z,11.10
2022-11-30T13:54:53.870Z,11.10
2022-11-30T13:57:23.744Z,11.10
2022-11-30T13:59:54.089Z,11.10
2022-11-30T14:02:47.218Z,11.10
2022-11-30T14:05:16.845Z,11.20
2022-11-30T14:08:06.732Z,11.30
2022-11-30T14:10:33.694Z,11.30
2022-11-30T14:13:03.148Z,11.40
2022-11-30T14:15:39.110Z,11.40
2022-11-30T14:18:08.737Z,11.40
2022-11-30T14:20:39.270Z,11.40
2022-11-30T14:23:26.833Z,11.40
2022-11-30T14:25:55.445Z,11.30
2022-11-30T14:28:24.506Z,11.30
2022-11-30T14:30:51.739Z,11.20
2022-11-30T14:33:20.250Z,11.20
2022-11-30T14:35:49.094Z,11.10
2022-11-30T14:38:38.441Z,11.00
2022-11-30T14:41:05.928Z,10.90
2022-11-30T14:43:32.782Z,10.90
2022-11-30T14:46:04.998Z,10.80
2022-11-30T14:48:34.007Z,10.70
2022-11-30T14:51:03.650Z,10.70
2022-11-30T14:53:30.540Z,10.70
2022-11-30T14:56:04.864Z,10.60
2022-11-30T14:58:37.739Z,10.50
2022-11-30T15:01:14.357Z,10.60
2022-11-30T15:03:41.217Z,10.50
2022-11-30T15:06:08.061Z,10.50
2022-11-30T15:08:34.994Z,10.40
2022-11-30T15:11:09.719Z,10.40
2022-11-30T15:13:44.705Z,10.40
2022-11-30T15:16:31.821Z,10.40
2022-11-30T15:18:59.593Z,10.30
2022-11-30T15:21:28.092Z,10.20
2022-11-30T15:23:55.924Z,10.20
2022-11-30T15:26:32.446Z,10.10
2022-11-30T15:29:05.994Z,10.10
2022-11-30T15:31:34.838Z,10.20
2022-11-30T15:34:02.030Z,10.30
2022-11-30T15:36:38.655Z,10.40
2022-11-30T15:39:07.220Z,10.40
2022-11-30T15:41:34.775Z,10.40
2022-11-30T15:44:04.980Z,10.40
2022-11-30T15:46:39.793Z,10.50
2022-11-30T15:49:14.732Z,10.60
2022-11-30T15:51:42.630Z,10.60
2022-11-30T15:54:09.534Z,10.60
2022-11-30T15:56:36.550Z,10.60
2022-11-30T15:59:05.440Z,10.60
2022-11-30T16:02:01.770Z,10.70
2022-11-30T16:04:30.083Z,10.70
2022-11-30T16:06:57.009Z,10.70
2022-11-30T16:09:33.544Z,10.70
2022-11-30T16:12:01.755Z,10.70
2022-11-30T16:14:28.721Z,10.70
2022-11-30T16:17:01.639Z,10.60
2022-11-30T16:19:32.499Z,10.70
2022-11-30T16:21:59.323Z,10.70
2022-11-30T16:24:26.173Z,10.60
2022-11-30T16:26:53.478Z,10.50
2022-11-30T16:29:20.530Z,10.50
2022-11-30T16:31:47.610Z,10.50
2022-11-30T16:34:14.600Z,10.50
2022-11-30T16:36:41.437Z,10.50
2022-11-30T16:39:12.344Z,10.50
2022-11-30T16:41:39.798Z,10.50
2022-11-30T16:44:11.861Z,10.50
2022-11-30T16:46:38.696Z,10.50
2022-11-30T16:49:05.577Z,10.50
2022-11-30T16:51:34.811Z,10.40
2022-11-30T16:54:01.821Z,10.50
2022-11-30T16:56:28.862Z,10.40
2022-11-30T16:58:55.710Z,10.40
2022-11-30T17:01:31.616Z,10.40
2022-11-30T17:04:03.429Z,10.30
2022-11-30T17:06:30.942Z,10.20
2022-11-30T17:08:57.757Z,10.20
2022-11-30T17:11:35.209Z,10.20
2022-11-30T17:14:02.018Z,10.10
2022-11-30T17:16:28.887Z,10.10
2022-11-30T17:18:55.761Z,10.00
2022-11-30T17:21:27.632Z,9.90
2022-11-30T17:23:54.600Z,9.90
2022-11-30T17:26:21.487Z,9.80
2022-11-30T17:28:48.326Z,9.80
2022-11-30T17:31:15.327Z,9.80
2022-11-30T17:33:47.768Z,9.70
2022-11-30T17:36:15.928Z,9.70
2022-11-30T17:38:44.334Z,9.70
2022-11-30T17:41:18.927Z,9.60
2022-11-30T17:43:47.575Z,9.60
2022-11-30T17:46:17.218Z,9.60
2022-11-30T17:48:44.527Z,9.50
2022-11-30T17:51:11.923Z,9.50
2022-11-30T17:53:39.379Z,9.40
2022-11-30T17:56:07.411Z,9.30
2022-11-30T17:58:39.014Z,9.30
2022-11-30T18:01:15.932Z,9.20
2022-11-30T18:03:42.819Z,9.10
2022-11-30T18:06:09.725Z,9.00
2022-11-30T18:08:38.097Z,8.90
2022-11-30T18:11:12.961Z,8.90
2022-11-30T18:13:39.983Z,8.80
2022-11-30T18:16:17.341Z,8.70
2022-11-30T18:18:47.796Z,8.70
2022-11-30T18:21:16.597Z,8.70
2022-11-30T18:23:43.491Z,8.60
2022-11-30T18:26:18.053Z,8.60
2022-11-30T18:28:45.603Z,8.70
2022-11-30T18:31:12.852Z,8.60
2022-11-30T18:33:39.724Z,8.60
2022-11-30T18:36:07.899Z,8.60
2022-11-30T18:38:37.908Z,8.50
2022-11-30T18:41:05.911Z,8.50
2022-11-30T18:43:34.004Z,8.50
2022-11-30T18:46:05.191Z,8.40
2022-11-30T18:48:32.200Z,8.30
2022-11-30T18:50:59.028Z,8.30
2022-11-30T18:53:26.166Z,8.30
2022-11-30T18:55:53.050Z,8.30
2022-11-30T18:58:19.949Z,8.20
2022-11-30T19:00:46.842Z,8.20
2022-11-30T19:03:13.647Z,8.20
2022-11-30T19:05:41.000Z,8.20
2022-11-30T19:08:08.928Z,8.10
2022-11-30T19:10:36.468Z,8.10
2022-11-30T19:13:04.245Z,8.00
2022-11-30T19:15:31.474Z,8.00
2022-11-30T19:17:58.339Z,8.00
2022-11-30T19:20:25.175Z,8.00
2022-11-30T19:22:52.121Z,8.00
2022-11-30T19:25:19.354Z,8.00
2022-11-30T19:27:46.454Z,8.00
2022-11-30T19:30:13.654Z,8.00
2022-11-30T19:32:40.494Z,8.00
2022-11-30T19:35:10.438Z,7.90
2022-11-30T19:37:37.268Z,8.00
2022-11-30T19:40:04.851Z,8.00
2022-11-30T19:42:31.675Z,8.00
2022-11-30T19:44:58.569Z,8.00
2022-11-30T19:47:25.403Z,8.10
2022-11-30T19:49:52.303Z,8.10
2022-11-30T19:52:20.578Z,8.10
2022-11-30T19:54:48.085Z,8.10
2022-11-30T19:57:15.073Z,8.00
2022-11-30T19:59:41.912Z,8.00
2022-11-30T20:02:12.301Z,8.00
2022-11-30T20:04:39.503Z,8.10
2022-11-30T20:07:06.411Z,8.10
2022-11-30T20:09:33.459Z,8.20
2022-11-30T20:12:00.280Z,8.20
2022-11-30T20:14:27.071Z,8.20
2022-11-30T20:16:54.003Z,8.20
2022-11-30T20:19:20.888Z,8.20
2022-11-30T20:21:48.694Z,8.20
2022-11-30T20:24:15.971Z,8.20
2022-11-30T20:26:43.830Z,8.20
2022-11-30T20:29:15.479Z,8.20
2022-11-30T20:31:43.418Z,8.20
2022-11-30T20:34:10.516Z,8.30
2022-11-30T20:36:37.428Z,8.30
2022-11-30T20:39:05.222Z,8.20
2022-11-30T20:41:32.163Z,8.20
2022-11-30T20:43:58.996Z,8.20
2022-11-30T20:46:30.057Z,8.20
2022-11-30T20:48:57.396Z,8.20
2022-11-30T20:51:33.525Z,8.10
2022-11-30T20:54:01.681Z,8.10
2022-11-30T20:56:28.596Z,8.10
2022-11-30T20:58:55.420Z,8.10
2022-11-30T21:01:22.937Z,8.10
2022-11-30T21:03:49.885Z,8.10
2022-11-30T21:06:16.809Z,8.10
2022-11-30T21:08:43.822Z,8.10
2022-11-30T21:11:14.932Z,8.00
2022-11-30T21:13:42.204Z,7.90
2022-11-30T21:16:09.041Z,7.90
2022-11-30T21:18:40.191Z,7.90
2022-11-30T21:21:08.158Z,7.90
2022-11-30T21:23:35.182Z,7.90
2022-11-30T21:26:05.917Z,7.90
2022-11-30T21:28:37.812Z,7.80
2022-11-30T21:31:06.008Z,7.80
2022-11-30T21:33:33.207Z,7.80
2022-11-30T21:36:00.150Z,7.80
2022-11-30T21:38:26.968Z,7.80
2022-11-30T21:40:57.333Z,7.70
2022-11-30T21:43:24.185Z,7.70
2022-11-30T21:46:01.287Z,7.70
2022-11-30T21:48:28.909Z,7.70
2022-11-30T21:50:59.672Z,7.80
2022-11-30T21:53:27.323Z,7.80
2022-11-30T21:55:55.812Z,7.70
2022-11-30T21:58:22.896Z,7.70
2022-11-30T22:00:56.112Z,7.70
2022-11-30T22:03:23.227Z,7.70
2022-11-30T22:05:59.379Z,7.70
2022-11-30T22:08:26.614Z,7.80
2022-11-30T22:10:53.649Z,7.80
2022-11-30T22:13:20.958Z,7.80
2022-11-30T22:15:47.840Z,7.80
2022-11-30T22:18:14.769Z,7.80
2022-11-30T22:20:41.590Z,7.80
2022-11-30T22:23:08.435Z,7.80
2022-11-30T22:25:35.308Z,7.80
2022-11-30T22:28:02.115Z,7.80
2022-11-30T22:30:28.980Z,7.70
2022-11-30T22:32:55.921Z,7.70
2022-11-30T22:35:22.813Z,7.80
2022-11-30T22:37:49.813Z,7.80
2022-11-30T22:40:16.739Z,7.80
2022-11-30T22:42:43.548Z,7.80
2022-11-30T22:45:10.452Z,7.80
2022-11-30T22:47:37.363Z,7.80
2022-11-30T22:50:04.637Z,7.90
2022-11-30T22:53:00.940Z,7.90
2022-11-30T22:55:18.864Z,7.90
2022-11-30T22:57:45.868Z,7.90
2022-11-30T23:00:12.981Z,7.90
2022-11-30T23:02:39.853Z,7.90
2022-11-30T23:05:06.889Z,8.00
2022-11-30T23:07:33.836Z,7.90
2022-11-30T23:10:00.849Z,7.90
2022-11-30T23:12:51.264Z,7.90
2022-11-30T23:15:14.516Z,7.80
2022-11-30T23:17:41.522Z,7.70
2022-11-30T23:20:08.527Z,7.80
2022-11-30T23:22:36.362Z,7.80
2022-11-30T23:25:03.714Z,7.90
2022-11-30T23:27:30.652Z,7.90
2022-11-30T23:29:57.521Z,7.90
2022-11-30T23:32:24.609Z,7.90
2022-11-30T23:34:51.592Z,7.80
2022-11-30T23:37:18.450Z,7.80
2022-11-30T23:39:45.499Z,7.80
2022-11-30T23:42:12.426Z,7.90
2022-11-30T23:44:39.257Z,7.80
2022-11-30T23:47:06.104Z,7.80
2022-11-30T23:49:32.975Z,7.80
2022-11-30T23:51:59.807Z,7.80
2022-11-30T23:54:26.674Z,7.80
2022-11-30T23:56:53.568Z,7.80
2022-11-30T23:59:20.514Z,7.80
